createdAt,value
2023-01-19T00:00:57.519Z,28.70
2023-01-19T00:03:24.467Z,33.92
2023-01-19T00:05:51.816Z,32.47
2023-01-19T00:08:19.070Z,24.25
2023-01-19T00:10:47.585Z,37.13
2023-01-19T00:13:15.082Z,26.90
2023-01-19T00:15:43.936Z,32.25
2023-01-19T00:18:11.395Z,31.30
2023-01-19T00:20:38.952Z,21.80
2023-01-19T00:23:08.002Z,24.80
2023-01-19T00:25:35.381Z,31.30
2023-01-19T00:28:02.422Z,37.38
2023-01-19T00:30:29.646Z,29.70
2023-01-19T00:32:58.473Z,42.10
2023-01-19T00:35:25.981Z,30.13
2023-01-19T00:37:52.942Z,33.67
2023-01-19T00:40:20.111Z,36.95
2023-01-19T00:42:48.536Z,41.55
2023-01-19T00:45:21.106Z,31.95
2023-01-19T00:47:50.226Z,27.08
2023-01-19T00:50:18.600Z,46.30
2023-01-19T00:52:45.839Z,29.98
2023-01-19T00:55:14.656Z,38.30
2023-01-19T00:57:42.438Z,28.15
2023-01-19T01:00:12.904Z,34.45
2023-01-19T01:02:41.083Z,26.23
2023-01-19T01:05:09.003Z,25.42
2023-01-19T01:07:41.767Z,28.25
2023-01-19T01:10:09.894Z,39.33
2023-01-19T01:12:37.317Z,36.47
2023-01-19T01:15:05.640Z,35.45
2023-01-19T01:17:32.653Z,42.92
2023-01-19T01:19:59.663Z,23.80
2023-01-19T01:22:26.844Z,28.15
2023-01-19T01:24:55.345Z,37.03
2023-01-19T01:27:22.490Z,30.90
2023-01-19T01:29:49.514Z,27.85
2023-01-19T01:32:16.828Z,36.50
2023-01-19T01:34:43.986Z,31.40
2023-01-19T01:37:11.447Z,25.13
2023-01-19T01:39:38.388Z,29.45
2023-01-19T01:42:15.885Z,28.15
2023-01-19T01:44:52.214Z,31.75
2023-01-19T01:47:24.087Z,22.58
2023-01-19T01:49:55.902Z,31.90
2023-01-19T01:52:25.479Z,40.35
2023-01-19T01:54:52.897Z,27.63
2023-01-19T01:57:23.121Z,40.80
2023-01-19T01:59:51.039Z,34.85
2023-01-19T02:02:39.790Z,35.50
2023-01-19T02:05:10.724Z,26.27
2023-01-19T02:08:02.937Z,37.83
2023-01-19T02:10:48.660Z,25.88
2023-01-19T02:13:22.579Z,32.45
2023-01-19T02:15:51.818Z,36.92
2023-01-19T02:18:21.180Z,42.50
2023-01-19T02:20:55.632Z,27.38
2023-01-19T02:23:34.264Z,34.20
2023-01-19T02:26:02.198Z,30.90
2023-01-19T02:28:30.947Z,30.10
2023-01-19T02:30:58.280Z,29.58
2023-01-19T02:33:25.412Z,40.15
2023-01-19T02:35:53.641Z,39.05
2023-01-19T02:38:21.290Z,29.75
2023-01-19T02:40:50.594Z,39.25
2023-01-19T02:43:19.203Z,32.25
2023-01-19T02:45:48.244Z,25.58
2023-01-19T02:48:18.014Z,27.35
2023-01-19T02:50:49.506Z,34.05
2023-01-19T02:53:33.993Z,33.10
2023-01-19T02:56:13.575Z,39.72
2023-01-19T02:58:48.515Z,34.42
2023-01-19T03:01:23.818Z,33.13
2023-01-19T03:03:55.968Z,29.65
2023-01-19T03:06:35.047Z,30.48
2023-01-19T03:09:04.807Z,37.70
2023-01-19T03:11:37.243Z,33.58
2023-01-19T03:14:09.112Z,40.15
2023-01-19T03:16:40.931Z,34.75
2023-01-19T03:19:12.458Z,37.75
2023-01-19T03:21:43.077Z,41.15
2023-01-19T03:24:12.279Z,32.42
2023-01-19T03:26:44.510Z,31.42
2023-01-19T03:29:13.669Z,27.35
2023-01-19T03:31:43.892Z,29.58
2023-01-19T03:34:13.312Z,39.30
2023-01-19T03:36:44.500Z,31.70
2023-01-19T03:39:14.040Z,39.10
2023-01-19T03:41:44.156Z,27.02
2023-01-19T03:44:12.178Z,25.90
2023-01-19T03:46:40.158Z,42.88
2023-01-19T03:49:08.450Z,33.83
2023-01-19T03:51:37.529Z,29.98
2023-01-19T03:54:05.673Z,44.75
2023-01-19T03:56:32.841Z,29.77
2023-01-19T03:59:01.183Z,35.58
2023-01-19T04:01:28.275Z,43.70
2023-01-19T04:03:55.432Z,32.50
2023-01-19T04:06:22.364Z,48.20
2023-01-19T04:08:50.639Z,31.85
2023-01-19T04:11:17.842Z,38.13
2023-01-19T04:13:45.093Z,38.42
2023-01-19T04:16:13.540Z,36.00
2023-01-19T04:18:40.911Z,28.88
2023-01-19T04:21:08.204Z,35.72
2023-01-19T04:23:35.225Z,48.38
2023-01-19T04:26:04.262Z,35.88
2023-01-19T04:28:32.118Z,46.25
2023-01-19T04:30:59.561Z,37.97
2023-01-19T04:33:28.432Z,40.15
2023-01-19T04:35:56.178Z,42.53
2023-01-19T04:38:23.883Z,37.75
2023-01-19T04:40:52.710Z,53.40
2023-01-19T04:43:20.072Z,45.47
2023-01-19T04:45:47.715Z,38.33
2023-01-19T04:48:15.205Z,45.58
2023-01-19T04:50:43.467Z,38.47
2023-01-19T04:53:11.077Z,43.88
2023-01-19T04:55:38.921Z,40.42
2023-01-19T04:58:05.852Z,36.33
2023-01-19T05:00:33.771Z,39.17
2023-01-19T05:03:02.404Z,34.38
2023-01-19T05:05:30.102Z,46.67
2023-01-19T05:07:58.429Z,40.40
2023-01-19T05:10:25.410Z,49.28
2023-01-19T05:12:52.557Z,34.15
2023-01-19T05:15:19.539Z,55.03
2023-01-19T05:17:46.463Z,48.20
2023-01-19T05:20:16.242Z,54.22
2023-01-19T05:22:44.049Z,53.75
2023-01-19T05:25:12.355Z,33.65
2023-01-19T05:27:39.278Z,50.75
2023-01-19T05:30:07.451Z,35.72
2023-01-19T05:32:34.387Z,40.63
2023-01-19T05:35:01.434Z,50.22
2023-01-19T05:37:28.566Z,51.03
2023-01-19T05:39:58.469Z,42.67
2023-01-19T05:42:26.837Z,40.38
2023-01-19T05:44:53.758Z,47.40
2023-01-19T05:47:20.700Z,51.45
2023-01-19T05:49:47.613Z,44.72
2023-01-19T05:52:14.954Z,40.90
2023-01-19T05:54:41.858Z,42.85
2023-01-19T05:57:09.432Z,51.92
2023-01-19T05:59:37.811Z,39.92
2023-01-19T06:02:05.873Z,52.25
2023-01-19T06:04:32.848Z,42.40
2023-01-19T06:07:02.919Z,43.53
2023-01-19T06:09:30.201Z,65.22
2023-01-19T06:11:59.467Z,38.30
2023-01-19T06:14:26.620Z,38.25
2023-01-19T06:16:54.982Z,34.75
2023-01-19T06:19:21.929Z,59.75
2023-01-19T06:21:52.145Z,49.08
2023-01-19T06:24:19.703Z,45.35
2023-01-19T06:26:49.785Z,42.72
2023-01-19T06:29:17.134Z,39.40
2023-01-19T06:31:44.185Z,41.92
2023-01-19T06:34:12.648Z,46.28
2023-01-19T06:36:39.664Z,41.40
2023-01-19T06:39:06.744Z,43.53
2023-01-19T06:41:34.749Z,37.80
2023-01-19T06:44:02.102Z,38.70
2023-01-19T06:46:29.627Z,36.92
2023-01-19T06:48:56.550Z,45.40
2023-01-19T06:51:25.630Z,45.83
2023-01-19T06:53:52.628Z,47.95
2023-01-19T06:56:19.587Z,41.17
2023-01-19T06:58:47.892Z,47.75
2023-01-19T07:01:15.145Z,42.25
2023-01-19T07:03:42.546Z,41.13
2023-01-19T07:06:09.773Z,49.47
2023-01-19T07:08:40.201Z,56.47
2023-01-19T07:11:26.361Z,36.25
2023-01-19T07:13:56.658Z,46.10
2023-01-19T07:16:24.234Z,51.65
2023-01-19T07:18:51.691Z,37.17
2023-01-19T07:21:19.305Z,47.58
2023-01-19T07:23:50.025Z,47.67
2023-01-19T07:26:19.927Z,40.88
2023-01-19T07:28:48.193Z,48.90
2023-01-19T07:31:16.123Z,51.75
2023-01-19T07:33:43.217Z,44.08
2023-01-19T07:36:10.398Z,50.53
2023-01-19T07:38:37.481Z,48.05
2023-01-19T07:41:08.098Z,42.53
2023-01-19T07:43:35.479Z,32.88
2023-01-19T07:46:04.710Z,38.45
2023-01-19T07:48:31.754Z,36.75
2023-01-19T07:51:00.813Z,40.40
2023-01-19T07:53:27.815Z,34.85
2023-01-19T07:55:56.497Z,47.17
2023-01-19T07:58:25.109Z,34.67
2023-01-19T08:00:52.692Z,37.38
2023-01-19T08:03:20.306Z,38.50
2023-01-19T08:05:51.914Z,43.17
2023-01-19T08:08:19.159Z,38.38
2023-01-19T08:10:50.321Z,43.60
2023-01-19T08:13:20.482Z,30.27
2023-01-19T08:15:51.577Z,39.05
2023-01-19T08:18:19.308Z,55.97
2023-01-19T08:20:46.578Z,34.83
2023-01-19T08:23:13.505Z,47.92
2023-01-19T08:25:42.885Z,33.42
2023-01-19T08:28:10.882Z,48.45
2023-01-19T08:30:38.564Z,45.70
2023-01-19T08:33:08.200Z,38.63
2023-01-19T08:35:37.084Z,50.80
2023-01-19T08:38:05.191Z,44.78
2023-01-19T08:40:36.778Z,30.40
2023-01-19T08:43:09.606Z,57.13
2023-01-19T08:45:38.067Z,42.85
2023-01-19T08:48:06.888Z,61.40
2023-01-19T08:50:34.578Z,47.78
2023-01-19T08:53:06.355Z,48.38
2023-01-19T08:55:35.266Z,44.70
2023-01-19T08:58:04.257Z,30.63
2023-01-19T09:00:37.950Z,35.00
2023-01-19T09:03:07.961Z,38.13
2023-01-19T09:05:38.831Z,46.17
2023-01-19T09:08:11.151Z,35.42
2023-01-19T09:10:39.174Z,37.65
2023-01-19T09:13:08.529Z,44.00
2023-01-19T09:15:38.665Z,25.63
2023-01-19T09:18:10.285Z,30.58
2023-01-19T09:20:39.123Z,32.17
2023-01-19T09:23:06.346Z,35.22
2023-01-19T09:25:33.301Z,34.55
2023-01-19T09:28:03.857Z,51.33
2023-01-19T09:30:33.146Z,44.63
2023-01-19T09:33:06.279Z,57.28
2023-01-19T09:35:38.417Z,47.63
2023-01-19T09:38:07.459Z,43.95
2023-01-19T09:40:42.263Z,46.30
2023-01-19T09:43:14.982Z,52.95
2023-01-19T09:45:48.095Z,58.85
2023-01-19T09:48:26.684Z,46.10
2023-01-19T09:50:58.329Z,32.55
2023-01-19T09:53:42.244Z,33.83
2023-01-19T09:56:14.056Z,51.28
2023-01-19T09:58:41.644Z,45.17
2023-01-19T10:01:22.231Z,39.65
2023-01-19T10:03:53.594Z,29.42
2023-01-19T10:06:23.163Z,38.85
2023-01-19T10:09:00.741Z,34.30
2023-01-19T10:11:42.034Z,41.40
2023-01-19T10:14:22.792Z,32.03
2023-01-19T10:16:57.947Z,42.20
2023-01-19T10:19:30.171Z,30.67
2023-01-19T10:22:03.847Z,38.22
2023-01-19T10:24:40.612Z,31.00
2023-01-19T10:27:15.563Z,31.05
2023-01-19T10:32:20.196Z,37.58
2023-01-19T10:34:47.687Z,26.80
2023-01-19T10:37:22.632Z,41.45
2023-01-19T10:42:20.173Z,29.55
2023-01-19T10:44:47.366Z,18.60
2023-01-19T10:47:17.912Z,21.30
2023-01-19T10:49:45.184Z,30.65
2023-01-19T10:52:26.732Z,29.27
2023-01-19T10:54:55.034Z,22.80
2023-01-19T10:57:28.267Z,20.02
2023-01-19T10:59:55.254Z,22.73
2023-01-19T11:02:26.705Z,28.20
2023-01-19T11:04:55.981Z,20.20
2023-01-19T11:07:28.343Z,22.30
2023-01-19T11:10:23.236Z,19.85
2023-01-19T11:13:12.877Z,25.45
2023-01-19T11:15:42.660Z,18.75
2023-01-19T11:18:24.421Z,32.45
2023-01-19T11:20:52.960Z,21.55
2023-01-19T11:23:26.086Z,24.13
2023-01-19T11:25:54.833Z,34.20
2023-01-19T11:28:28.251Z,19.02
2023-01-19T11:30:57.252Z,33.15
2023-01-19T11:33:26.152Z,22.23
2023-01-19T11:36:03.469Z,22.63
2023-01-19T11:38:32.341Z,14.30
2023-01-19T11:41:00.068Z,14.38
2023-01-19T11:43:43.575Z,27.15
2023-01-19T11:46:16.442Z,15.68
2023-01-19T11:48:48.514Z,9.43
2023-01-19T11:51:19.562Z,22.45
2023-01-19T11:53:51.909Z,26.00
2023-01-19T11:56:23.352Z,31.05
2023-01-19T11:58:50.357Z,13.18
2023-01-19T12:01:22.179Z,19.30
2023-01-19T12:03:57.524Z,15.35
2023-01-19T12:06:28.206Z,15.27
2023-01-19T12:08:59.900Z,20.92
2023-01-19T12:11:32.575Z,17.08
2023-01-19T12:14:00.467Z,17.25
2023-01-19T12:16:30.246Z,25.25
2023-01-19T12:19:00.699Z,21.38
2023-01-19T12:21:30.703Z,23.23
2023-01-19T12:24:11.571Z,16.70
2023-01-19T12:26:46.038Z,21.50
2023-01-19T12:29:15.525Z,22.58
2023-01-19T12:31:45.641Z,20.27
2023-01-19T12:34:36.043Z,22.33
2023-01-19T12:37:04.778Z,20.65
2023-01-19T12:39:37.913Z,28.20
2023-01-19T12:42:08.292Z,33.08
2023-01-19T12:44:35.915Z,23.58
2023-01-19T12:47:20.324Z,24.38
2023-01-19T12:49:50.390Z,15.37
2023-01-19T12:52:40.548Z,18.35
2023-01-19T12:55:19.996Z,19.52
2023-01-19T12:57:56.197Z,21.35
2023-01-19T13:00:35.123Z,18.50
2023-01-19T13:03:04.563Z,23.23
2023-01-19T13:05:50.578Z,17.58
2023-01-19T13:08:23.053Z,25.48
2023-01-19T13:11:14.944Z,19.25
2023-01-19T13:13:43.909Z,21.80
2023-01-19T13:16:48.294Z,19.65
2023-01-19T13:19:17.841Z,19.90
2023-01-19T13:21:46.694Z,24.60
2023-01-19T13:24:15.318Z,18.10
2023-01-19T13:26:59.932Z,15.75
2023-01-19T13:29:33.856Z,18.05
2023-01-19T13:32:02.984Z,23.52
2023-01-19T13:34:34.207Z,15.13
2023-01-19T13:37:02.097Z,26.20
2023-01-19T13:39:32.149Z,20.58
2023-01-19T13:42:05.422Z,16.30
2023-01-19T13:44:39.299Z,22.45
2023-01-19T13:47:11.896Z,17.67
2023-01-19T13:49:42.317Z,19.50
2023-01-19T13:52:14.922Z,15.98
2023-01-19T13:54:49.724Z,18.83
2023-01-19T13:57:26.058Z,20.70
2023-01-19T14:00:15.369Z,18.55
2023-01-19T14:02:54.013Z,16.13
2023-01-19T14:05:24.242Z,12.40
2023-01-19T14:08:03.886Z,11.48
2023-01-19T14:10:31.699Z,16.75
2023-01-19T14:13:01.394Z,13.73
2023-01-19T14:15:29.057Z,17.17
2023-01-19T14:18:10.389Z,19.23
2023-01-19T14:20:37.506Z,20.38
2023-01-19T14:23:05.429Z,10.82
2023-01-19T14:25:34.367Z,11.35
2023-01-19T14:28:39.344Z,10.15
2023-01-19T14:31:20.815Z,15.43
2023-01-19T14:33:49.652Z,13.38
2023-01-19T14:36:26.622Z,15.32
2023-01-19T14:38:55.626Z,17.23
2023-01-19T14:41:25.283Z,13.20
2023-01-19T14:43:56.054Z,16.63
2023-01-19T14:46:24.012Z,13.93
2023-01-19T14:48:53.059Z,19.73
2023-01-19T14:51:23.415Z,10.65
2023-01-19T14:53:53.119Z,15.43
2023-01-19T14:56:28.388Z,9.90
2023-01-19T14:58:58.025Z,15.30
2023-01-19T15:01:28.565Z,7.68
2023-01-19T15:03:58.351Z,16.88
2023-01-19T15:06:26.617Z,7.68
2023-01-19T15:08:54.509Z,10.52
2023-01-19T15:11:24.780Z,15.18
2023-01-19T15:13:52.178Z,19.25
2023-01-19T15:16:20.782Z,9.35
2023-01-19T15:18:47.705Z,16.40
2023-01-19T15:21:16.118Z,16.50
2023-01-19T15:23:43.075Z,11.85
2023-01-19T15:26:15.680Z,6.78
2023-01-19T15:28:43.490Z,16.17
2023-01-19T15:31:15.136Z,9.15
2023-01-19T15:33:44.028Z,12.00
2023-01-19T15:36:13.530Z,7.32
2023-01-19T15:38:40.625Z,14.05
2023-01-19T15:41:13.387Z,13.00
2023-01-19T15:43:40.416Z,12.88
2023-01-19T15:46:13.258Z,11.30
2023-01-19T15:48:40.308Z,14.85
2023-01-19T15:51:12.257Z,14.90
2023-01-19T15:53:40.307Z,11.88
2023-01-19T15:56:13.763Z,11.63
2023-01-19T15:58:40.774Z,16.13
2023-01-19T16:01:11.951Z,7.65
2023-01-19T16:03:42.192Z,20.40
2023-01-19T16:06:11.032Z,10.90
2023-01-19T16:08:38.359Z,11.85
2023-01-19T16:11:06.327Z,7.40
2023-01-19T16:13:34.095Z,12.70
2023-01-19T16:16:04.688Z,12.07
2023-01-19T16:18:31.902Z,12.57
2023-01-19T16:20:58.810Z,14.02
2023-01-19T16:23:27.367Z,11.77
2023-01-19T16:25:59.159Z,12.20
2023-01-19T16:28:27.100Z,9.25
2023-01-19T16:30:54.350Z,13.05
2023-01-19T16:33:21.500Z,9.50
2023-01-19T16:35:48.467Z,8.88
2023-01-19T16:38:15.422Z,7.13
2023-01-19T16:40:45.677Z,10.27
2023-01-19T16:43:15.295Z,6.93
2023-01-19T16:45:58.105Z,13.93
2023-01-19T16:48:25.920Z,12.80
2023-01-19T16:51:04.334Z,8.85
2023-01-19T16:53:32.615Z,10.73
2023-01-19T16:56:04.537Z,15.73
2023-01-19T16:58:31.683Z,16.30
2023-01-19T17:00:59.456Z,7.93
2023-01-19T17:03:27.147Z,11.45
2023-01-19T17:05:54.075Z,5.45
2023-01-19T17:08:21.875Z,6.25
2023-01-19T17:10:48.918Z,15.48
2023-01-19T17:13:17.345Z,13.55
2023-01-19T17:15:44.812Z,9.02
2023-01-19T17:18:11.745Z,13.93
2023-01-19T17:20:38.698Z,8.38
2023-01-19T17:23:05.642Z,8.25
2023-01-19T17:25:32.633Z,8.90
2023-01-19T17:28:01.246Z,8.30
2023-01-19T17:30:29.852Z,7.53
2023-01-19T17:32:56.832Z,8.05
2023-01-19T17:35:23.780Z,7.97
2023-01-19T17:37:53.524Z,10.00
2023-01-19T17:40:20.572Z,4.07
2023-01-19T17:42:48.033Z,12.20
2023-01-19T17:45:15.176Z,14.00
2023-01-19T17:47:43.743Z,4.15
2023-01-19T17:50:11.409Z,12.38
2023-01-19T17:52:38.582Z,11.05
2023-01-19T17:55:06.363Z,12.95
2023-01-19T17:57:33.392Z,11.50
2023-01-19T18:00:00.361Z,11.73
2023-01-19T18:02:27.507Z,7.38
2023-01-19T18:04:56.384Z,9.73
2023-01-19T18:07:23.409Z,11.65
2023-01-19T18:09:51.727Z,12.43
2023-01-19T18:12:19.935Z,11.77
2023-01-19T18:14:46.930Z,9.63
2023-01-19T18:17:14.136Z,8.98
2023-01-19T18:19:41.132Z,14.77
2023-01-19T18:22:09.492Z,5.78
2023-01-19T18:24:36.735Z,9.07
2023-01-19T18:27:03.993Z,9.50
2023-01-19T18:29:30.995Z,8.38
2023-01-19T18:31:57.927Z,12.43
2023-01-19T18:34:24.897Z,15.40
2023-01-19T18:36:51.788Z,12.73
2023-01-19T18:39:20.273Z,13.85
2023-01-19T18:41:47.242Z,13.27
2023-01-19T18:44:14.537Z,15.15
2023-01-19T18:46:41.707Z,12.55
2023-01-19T18:49:10.859Z,12.57
2023-01-19T18:51:40.838Z,7.50
2023-01-19T18:54:09.665Z,11.75
2023-01-19T18:56:39.444Z,9.18
2023-01-19T18:59:08.050Z,8.20
2023-01-19T19:01:37.258Z,7.85
2023-01-19T19:04:06.102Z,16.10
2023-01-19T19:06:35.382Z,12.73
2023-01-19T19:09:04.515Z,14.65
2023-01-19T19:11:33.189Z,12.43
2023-01-19T19:14:04.202Z,5.72
2023-01-19T19:16:35.398Z,11.68
2023-01-19T19:19:04.606Z,12.32
2023-01-19T19:21:31.794Z,13.60
2023-01-19T19:23:58.945Z,10.50
2023-01-19T19:26:29.379Z,11.77
2023-01-19T19:28:59.944Z,9.80
2023-01-19T19:31:31.492Z,14.77
2023-01-19T19:33:59.267Z,18.23
2023-01-19T19:36:30.321Z,13.32
2023-01-19T19:39:00.705Z,9.77
2023-01-19T19:41:30.001Z,15.90
2023-01-19T19:43:57.285Z,6.28
2023-01-19T19:46:25.777Z,12.80
2023-01-19T19:48:54.146Z,11.23
2023-01-19T19:51:24.293Z,9.68
2023-01-19T19:53:54.666Z,16.00
2023-01-19T19:56:23.996Z,8.45
2023-01-19T19:58:53.435Z,13.57
2023-01-19T20:01:27.209Z,19.35
2023-01-19T20:03:58.448Z,8.68
2023-01-19T20:06:29.193Z,13.23
2023-01-19T20:08:58.433Z,13.23
2023-01-19T20:11:29.348Z,20.33
2023-01-19T20:13:58.189Z,13.52
2023-01-19T20:16:27.247Z,6.63
2023-01-19T20:18:56.035Z,11.77
2023-01-19T20:21:26.491Z,11.85
2023-01-19T20:23:55.831Z,9.70
2023-01-19T20:26:26.181Z,12.20
2023-01-19T20:28:54.679Z,11.15
2023-01-19T20:31:23.644Z,8.15
2023-01-19T20:33:52.628Z,16.52
2023-01-19T20:36:24.775Z,8.98
2023-01-19T20:38:53.127Z,16.17
2023-01-19T20:41:21.621Z,12.88
2023-01-19T20:43:49.472Z,8.40
2023-01-19T20:46:16.848Z,11.52
2023-01-19T20:48:44.086Z,9.13
2023-01-19T20:51:13.081Z,13.55
2023-01-19T20:53:42.406Z,9.85
2023-01-19T20:56:14.622Z,7.78
2023-01-19T20:58:42.167Z,17.67
2023-01-19T21:01:11.631Z,17.33
2023-01-19T21:03:39.426Z,9.95
2023-01-19T21:06:07.286Z,10.50
2023-01-19T21:08:34.402Z,12.00
2023-01-19T21:11:03.311Z,19.13
2023-01-19T21:13:30.860Z,10.48
2023-01-19T21:15:58.174Z,12.52
2023-01-19T21:18:26.604Z,11.40
2023-01-19T21:20:54.011Z,10.25
2023-01-19T21:23:21.153Z,10.27
2023-01-19T21:25:49.333Z,10.68
2023-01-19T21:28:18.175Z,10.57
2023-01-19T21:30:45.770Z,13.85
2023-01-19T21:33:13.417Z,12.88
2023-01-19T21:35:40.349Z,16.73
2023-01-19T21:38:07.359Z,12.80
2023-01-19T21:40:34.307Z,11.13
2023-01-19T21:43:01.251Z,14.95
2023-01-19T21:45:29.628Z,10.75
2023-01-19T21:47:56.571Z,13.15
2023-01-19T21:50:23.751Z,10.55
2023-01-19T21:52:50.696Z,14.68
2023-01-19T21:55:17.914Z,13.90
2023-01-19T21:57:44.837Z,13.18
2023-01-19T22:00:12.113Z,13.30
2023-01-19T22:02:41.132Z,11.20
2023-01-19T22:05:09.850Z,12.05
2023-01-19T22:07:36.794Z,9.48
2023-01-19T22:10:04.615Z,17.65
2023-01-19T22:12:31.503Z,12.32
2023-01-19T22:14:58.445Z,11.68
2023-01-19T22:17:25.382Z,10.65
2023-01-19T22:19:53.716Z,11.88
2023-01-19T22:22:20.667Z,11.65
2023-01-19T22:24:49.806Z,9.80
2023-01-19T22:27:16.953Z,9.13
2023-01-19T22:29:44.088Z,14.63
2023-01-19T22:32:11.105Z,10.77
2023-01-19T22:34:38.021Z,10.13
2023-01-19T22:37:06.484Z,17.13
2023-01-19T22:39:34.482Z,8.70
2023-01-19T22:42:01.449Z,10.38
2023-01-19T22:44:28.406Z,13.35
2023-01-19T22:46:56.233Z,11.77
2023-01-19T22:49:23.242Z,15.52
2023-01-19T22:51:50.321Z,9.70
2023-01-19T22:54:18.599Z,9.93
2023-01-19T22:56:45.865Z,14.05
2023-01-19T22:59:12.916Z,6.18
2023-01-19T23:01:41.266Z,13.77
2023-01-19T23:04:12.297Z,12.25
2023-01-19T23:06:39.278Z,12.90
2023-01-19T23:09:07.838Z,7.60
2023-01-19T23:11:38.691Z,12.18
2023-01-19T23:14:07.399Z,12.05
2023-01-19T23:16:34.883Z,11.90
2023-01-19T23:19:02.001Z,9.23
2023-01-19T23:21:30.465Z,13.68
2023-01-19T23:23:59.439Z,9.63
2023-01-19T23:26:27.130Z,10.57
2023-01-19T23:28:57.708Z,11.70
2023-01-19T23:31:27.100Z,9.80
2023-01-19T23:33:55.687Z,14.80
2023-01-19T23:36:24.777Z,11.85
2023-01-19T23:38:52.902Z,15.52
2023-01-19T23:41:20.666Z,9.38
2023-01-19T23:43:47.760Z,9.88
2023-01-19T23:46:17.292Z,14.68
2023-01-19T23:48:44.593Z,11.15
2023-01-19T23:51:13.101Z,7.82
2023-01-19T23:53:40.549Z,16.55
2023-01-19T23:56:12.485Z,10.93
2023-01-19T23:58:40.007Z,12.93
